createdAt,value
2023-01-28T00:04:26.338Z,16.5
2023-01-28T00:10:32.709Z,16.5
2023-01-28T00:16:38.921Z,16.4
2023-01-28T00:22:45.094Z,16.5
2023-01-28T00:28:53.334Z,16.4
2023-01-28T00:34:59.494Z,16.5
2023-01-28T00:41:05.485Z,16.4
2023-01-28T00:47:11.471Z,16.4
2023-01-28T00:53:17.457Z,16.4
2023-01-28T00:59:23.413Z,16.4
2023-01-28T01:05:29.206Z,16.4
2023-01-28T01:11:35.413Z,16.4
2023-01-28T01:17:40.776Z,16.4
2023-01-28T01:23:46.562Z,16.4
2023-01-28T01:29:52.369Z,16.4
2023-01-28T01:35:58.493Z,16.4
2023-01-28T01:42:04.274Z,16.4
2023-01-28T01:48:10.449Z,16.4
2023-01-28T01:54:16.824Z,16.4
2023-01-28T02:00:22.829Z,16.4
2023-01-28T02:06:29.222Z,16.4
2023-01-28T02:12:35.254Z,16.4
2023-01-28T02:18:41.200Z,16.4
2023-01-28T02:24:47.247Z,16.4
2023-01-28T02:30:53.302Z,16.4
2023-01-28T02:36:59.528Z,16.4
2023-01-28T02:43:05.707Z,16.4
2023-01-28T02:49:11.499Z,16.4
2023-01-28T02:55:17.848Z,16.4
2023-01-28T03:01:23.902Z,16.4
2023-01-28T03:07:29.653Z,16.4
2023-01-28T03:13:35.420Z,16.4
2023-01-28T03:19:41.608Z,16.4
2023-01-28T03:25:47.183Z,16.4
2023-01-28T03:31:52.974Z,16.4
2023-01-28T03:37:59.140Z,16.4
2023-01-28T03:44:04.926Z,16.3
2023-01-28T03:50:11.115Z,16.3
2023-01-28T03:56:17.495Z,16.3
2023-01-28T04:02:23.488Z,16.3
2023-01-28T04:08:29.269Z,16.3
2023-01-28T04:14:35.644Z,16.3
2023-01-28T04:20:41.432Z,16.3
2023-01-28T04:26:47.612Z,16.3
2023-01-28T04:32:53.377Z,16.3
2023-01-28T04:38:59.149Z,16.3
2023-01-28T04:45:05.149Z,16.3
2023-01-28T04:51:11.547Z,16.3
2023-01-28T04:57:16.891Z,16.3
2023-01-28T05:03:22.451Z,16.3
2023-01-28T05:09:28.220Z,16.3
2023-01-28T05:15:34.219Z,16.3
2023-01-28T05:21:39.863Z,16.3
2023-01-28T05:27:45.972Z,16.3
2023-01-28T05:33:51.547Z,16.3
2023-01-28T05:39:57.340Z,16.3
2023-01-28T05:46:03.330Z,16.4
2023-01-28T05:52:09.312Z,16.4
2023-01-28T05:58:15.259Z,16.5
2023-01-28T06:04:21.461Z,16.6
2023-01-28T06:10:27.426Z,16.7
2023-01-28T06:16:33.221Z,16.7
2023-01-28T06:22:38.988Z,16.8
2023-01-28T06:28:44.984Z,16.8
2023-01-28T06:34:50.966Z,16.8
2023-01-28T06:40:56.951Z,16.8
2023-01-28T06:47:02.933Z,16.8
2023-01-28T06:53:08.894Z,16.8
2023-01-28T06:59:15.096Z,16.8
2023-01-28T07:05:21.252Z,16.8
2023-01-28T07:11:27.024Z,16.7
2023-01-28T07:17:33.074Z,16.7
2023-01-28T07:23:39.013Z,16.7
2023-01-28T07:29:44.773Z,16.7
2023-01-28T07:35:50.789Z,16.7
2023-01-28T07:41:56.542Z,16.7
2023-01-28T07:48:02.540Z,16.7
2023-01-28T07:54:08.514Z,16.7
2023-01-28T08:00:14.944Z,16.7
2023-01-28T08:06:20.879Z,16.7
2023-01-28T08:12:27.066Z,16.7
2023-01-28T08:18:33.459Z,16.8
2023-01-28T08:24:39.101Z,16.8
2023-01-28T08:30:45.190Z,16.8
2023-01-28T08:36:50.981Z,16.8
2023-01-28T08:42:56.980Z,16.8
2023-01-28T08:49:03.145Z,16.8
2023-01-28T08:55:09.353Z,16.8
2023-01-28T09:01:15.426Z,16.8
2023-01-28T09:07:21.902Z,16.8
2023-01-28T09:13:27.507Z,16.8
2023-01-28T09:19:33.469Z,16.8
2023-01-28T09:25:39.455Z,16.8
2023-01-28T09:31:45.703Z,16.8
2023-01-28T09:37:51.637Z,16.8
2023-01-28T09:43:58.423Z,16.8
2023-01-28T09:50:04.615Z,16.8
2023-01-28T09:56:10.583Z,16.8
2023-01-28T10:02:16.794Z,16.9
2023-01-28T10:08:22.950Z,16.9
2023-01-28T10:14:29.133Z,16.9
2023-01-28T10:20:35.334Z,16.9
2023-01-28T10:26:41.534Z,16.9
2023-01-28T10:32:47.110Z,16.9
2023-01-28T10:38:53.345Z,17
2023-01-28T10:44:59.452Z,16.9
2023-01-28T10:51:05.664Z,16.9
2023-01-28T10:57:11.829Z,17
2023-01-28T11:03:17.814Z,17
2023-01-28T11:09:23.854Z,17
2023-01-28T11:15:30.373Z,17
2023-01-28T11:21:36.171Z,16.9
2023-01-28T11:27:42.550Z,17
2023-01-28T11:33:48.443Z,17
2023-01-28T11:39:54.500Z,17
2023-01-28T11:46:01.812Z,17
2023-01-28T11:52:10.581Z,17
2023-01-28T11:58:16.769Z,17
2023-01-28T12:04:23.248Z,17
2023-01-28T12:10:29.012Z,17
2023-01-28T12:16:34.928Z,17
2023-01-28T12:22:40.568Z,17
2023-01-28T12:28:46.919Z,17
2023-01-28T12:34:52.651Z,17
2023-01-28T12:40:58.614Z,17
2023-01-28T12:47:04.828Z,17
2023-01-28T12:53:11.217Z,17
2023-01-28T12:59:17.585Z,17.1
2023-01-28T13:05:23.785Z,17
2023-01-28T13:11:29.974Z,17
2023-01-28T13:17:36.145Z,17
2023-01-28T13:23:41.944Z,17
2023-01-28T13:29:47.908Z,17
2023-01-28T13:35:54.105Z,16.9
2023-01-28T13:42:00.303Z,16.9
2023-01-28T13:48:06.054Z,16.9
2023-01-28T13:54:12.463Z,17
2023-01-28T14:00:21.004Z,16.9
2023-01-28T14:06:29.423Z,16.9
2023-01-28T14:12:35.561Z,16.9
2023-01-28T14:18:41.704Z,17
2023-01-28T14:24:47.488Z,17
2023-01-28T14:30:53.513Z,16.9
2023-01-28T14:36:59.866Z,17
2023-01-28T14:43:05.820Z,17
2023-01-28T14:49:11.823Z,16.9
2023-01-28T14:55:17.926Z,16.9
2023-01-28T15:01:24.034Z,16.9
2023-01-28T15:07:30.188Z,16.9
2023-01-28T15:13:36.625Z,16.9
2023-01-28T15:19:42.339Z,16.9
2023-01-28T15:25:48.655Z,16.9
2023-01-28T15:31:55.043Z,16.9
2023-01-28T15:38:01.098Z,17
2023-01-28T15:44:08.495Z,16.9
2023-01-28T15:50:14.491Z,16.9
2023-01-28T15:56:20.334Z,16.9
2023-01-28T16:02:26.657Z,16.9
2023-01-28T16:08:33.455Z,16.9
2023-01-28T16:14:39.508Z,16.9
2023-01-28T16:20:46.046Z,16.9
2023-01-28T16:26:52.013Z,16.9
2023-01-28T16:32:58.053Z,16.9
2023-01-28T16:39:03.788Z,16.9
2023-01-28T16:45:09.974Z,16.9
2023-01-28T16:51:16.766Z,16.9
2023-01-28T16:57:22.766Z,16.9
2023-01-28T17:03:28.967Z,17
2023-01-28T17:09:35.342Z,16.9
2023-01-28T17:15:41.293Z,16.9
2023-01-28T17:21:47.704Z,16.9
2023-01-28T17:27:53.885Z,16.9
2023-01-28T17:33:59.874Z,17
2023-01-28T17:40:06.275Z,17
2023-01-28T17:46:12.293Z,16.9
2023-01-28T17:52:18.022Z,16.9
2023-01-28T17:58:24.420Z,17
2023-01-28T18:04:29.981Z,16.9
2023-01-28T18:10:36.165Z,16.9
2023-01-28T18:16:42.547Z,17
2023-01-28T18:22:48.524Z,16.9
2023-01-28T18:28:54.944Z,16.9
2023-01-28T18:35:02.142Z,16.9
2023-01-28T18:41:08.105Z,16.9
2023-01-28T18:47:13.769Z,16.9
2023-01-28T18:53:20.128Z,16.9
2023-01-28T18:59:26.695Z,16.9
2023-01-28T19:05:32.450Z,16.9
2023-01-28T19:11:38.625Z,16.9
2023-01-28T19:17:44.414Z,16.9
2023-01-28T19:23:50.566Z,17
2023-01-28T19:29:56.982Z,16.9
2023-01-28T19:36:02.769Z,16.9
2023-01-28T19:42:08.933Z,16.9
2023-01-28T19:48:14.927Z,17
2023-01-28T19:54:20.701Z,16.9
2023-01-28T20:00:26.895Z,16.9
2023-01-28T20:06:33.064Z,16.9
2023-01-28T20:12:38.865Z,16.9
2023-01-28T20:18:44.849Z,16.9
2023-01-28T20:24:51.223Z,17
2023-01-28T20:30:57.104Z,16.9
2023-01-28T20:37:02.976Z,17
2023-01-28T20:43:08.541Z,16.9
2023-01-28T20:49:14.541Z,16.9
2023-01-28T20:55:20.506Z,16.9
2023-01-28T21:01:26.520Z,17
2023-01-28T21:07:32.493Z,16.9
2023-01-28T21:13:38.062Z,16.9
2023-01-28T21:19:44.425Z,16.9
2023-01-28T21:25:50.822Z,16.9
2023-01-28T21:31:56.622Z,16.9
2023-01-28T21:38:02.612Z,16.9
2023-01-28T21:44:08.790Z,16.9
2023-01-28T21:50:15.168Z,16.9
2023-01-28T21:56:21.612Z,16.9
2023-01-28T22:02:27.239Z,16.9
2023-01-28T22:08:33.333Z,16.9
2023-01-28T22:14:39.507Z,16.9
2023-01-28T22:20:45.891Z,16.8
2023-01-28T22:26:52.311Z,16.8
2023-01-28T22:32:58.936Z,16.8
2023-01-28T22:39:04.651Z,16.8
2023-01-28T22:45:10.493Z,16.8
2023-01-28T22:51:16.452Z,16.7
2023-01-28T22:57:22.812Z,16.7
2023-01-28T23:03:28.184Z,16.7
2023-01-28T23:09:34.154Z,16.7
2023-01-28T23:15:41.468Z,16.6
2023-01-28T23:21:47.210Z,16.6
2023-01-28T23:27:52.981Z,16.6
2023-01-28T23:33:59.501Z,16.5
2023-01-28T23:40:05.312Z,16.5
2023-01-28T23:46:11.523Z,16.5
2023-01-28T23:52:17.675Z,16.5
2023-01-28T23:58:41.080Z,16.5
